sensor_id;sensor_type;location;lat;lon;timestamp;temperature;humidity
65752;DHT22;52486;51.098;13.770;2023-10-19T01:04:30;19.30;80.00
65752;DHT22;52486;51.098;13.770;2023-10-19T01:49:16;18.80;80.20
65752;DHT22;52486;51.098;13.770;2023-10-19T01:59:16;18.50;81.10
65752;DHT22;52486;51.098;13.770;2023-10-19T02:04:10;18.40;80.00
65752;DHT22;52486;51.098;13.770;2023-10-19T02:14:22;18.50;80.70
65752;DHT22;52486;51.098;13.770;2023-10-19T02:24:14;18.50;79.00
65752;DHT22;52486;51.098;13.770;2023-10-19T02:26:44;19.00;82.70
65752;DHT22;52486;51.098;13.770;2023-10-19T02:29:10;18.50;79.90
65752;DHT22;52486;51.098;13.770;2023-10-19T02:31:37;18.40;81.00
65752;DHT22;52486;51.098;13.770;2023-10-19T02:34:06;18.50;80.80
65752;DHT22;52486;51.098;13.770;2023-10-19T02:36:33;18.40;81.30
65752;DHT22;52486;51.098;13.770;2023-10-19T02:39:05;18.40;81.20
65752;DHT22;52486;51.098;13.770;2023-10-19T02:41:42;18.40;79.90
65752;DHT22;52486;51.098;13.770;2023-10-19T02:44:18;18.60;78.80
65752;DHT22;52486;51.098;13.770;2023-10-19T02:49:13;18.60;80.90
65752;DHT22;52486;51.098;13.770;2023-10-19T02:51:42;18.60;81.10
65752;DHT22;52486;51.098;13.770;2023-10-19T03:01:42;18.80;80.40
65752;DHT22;52486;51.098;13.770;2023-10-19T03:09:07;18.70;80.00
65752;DHT22;52486;51.098;13.770;2023-10-19T03:21:39;18.70;80.30
65752;DHT22;52486;51.098;13.770;2023-10-19T03:24:09;19.00;80.40
65752;DHT22;52486;51.098;13.770;2023-10-19T03:29:12;18.70;80.40
65752;DHT22;52486;51.098;13.770;2023-10-19T03:31:40;19.40;82.10
65752;DHT22;52486;51.098;13.770;2023-10-19T03:34:13;18.70;79.70
65752;DHT22;52486;51.098;13.770;2023-10-19T03:36:39;19.10;83.00
65752;DHT22;52486;51.098;13.770;2023-10-19T03:41:39;19.00;79.20
65752;DHT22;52486;51.098;13.770;2023-10-19T03:44:08;19.40;79.00
65752;DHT22;52486;51.098;13.770;2023-10-19T03:51:45;20.60;82.50
65752;DHT22;52486;51.098;13.770;2023-10-19T03:54:27;19.60;67.70
65752;DHT22;52486;51.098;13.770;2023-10-19T03:56:54;19.90;71.20
65752;DHT22;52486;51.098;13.770;2023-10-19T04:09:14;20.10;80.70
65752;DHT22;52486;51.098;13.770;2023-10-19T04:11:43;20.60;78.80
65752;DHT22;52486;51.098;13.770;2023-10-19T04:19:11;19.80;76.30
65752;DHT22;52486;51.098;13.770;2023-10-19T04:29:03;20.00;75.90
65752;DHT22;52486;51.098;13.770;2023-10-19T04:36:50;19.90;76.50
65752;DHT22;52486;51.098;13.770;2023-10-19T04:51:29;20.30;75.10
65752;DHT22;52486;51.098;13.770;2023-10-19T04:56:22;20.40;77.70
65752;DHT22;52486;51.098;13.770;2023-10-19T04:58:48;20.90;79.80
65752;DHT22;52486;51.098;13.770;2023-10-19T05:08:32;20.40;76.60
65752;DHT22;52486;51.098;13.770;2023-10-19T05:15:52;20.70;86.60
65752;DHT22;52486;51.098;13.770;2023-10-19T05:18:19;21.00;81.10
65752;DHT22;52486;51.098;13.770;2023-10-19T05:20:45;20.70;81.80
65752;DHT22;52486;51.098;13.770;2023-10-19T05:28:05;20.60;81.40
65752;DHT22;52486;51.098;13.770;2023-10-19T05:30:32;20.40;82.60
65752;DHT22;52486;51.098;13.770;2023-10-19T05:32:58;21.10;83.40
65752;DHT22;52486;51.098;13.770;2023-10-19T05:35:25;20.50;82.80
65752;DHT22;52486;51.098;13.770;2023-10-19T05:37:56;20.60;80.00
65752;DHT22;52486;51.098;13.770;2023-10-19T05:40:24;20.90;83.30
65752;DHT22;52486;51.098;13.770;2023-10-19T06:26:48;22.20;76.70
65752;DHT22;52486;51.098;13.770;2023-10-19T06:29:13;22.40;78.30
65752;DHT22;52486;51.098;13.770;2023-10-19T06:31:39;22.40;79.10
65752;DHT22;52486;51.098;13.770;2023-10-19T06:34:05;22.50;78.90
65752;DHT22;52486;51.098;13.770;2023-10-19T06:36:30;22.70;79.00
65752;DHT22;52486;51.098;13.770;2023-10-19T07:05:53;22.10;77.40
65752;DHT22;52486;51.098;13.770;2023-10-19T07:08:19;22.00;77.20
65752;DHT22;52486;51.098;13.770;2023-10-19T07:10:46;22.10;77.30
65752;DHT22;52486;51.098;13.770;2023-10-19T07:23:03;22.00;78.40
65752;DHT22;52486;51.098;13.770;2023-10-19T07:25:34;23.00;69.40
65752;DHT22;52486;51.098;13.770;2023-10-19T07:28:08;23.30;78.20
65752;DHT22;52486;51.098;13.770;2023-10-19T07:30:34;23.20;79.40
65752;DHT22;52486;51.098;13.770;2023-10-19T07:33:00;23.10;77.70
65752;DHT22;52486;51.098;13.770;2023-10-19T07:35:27;22.60;78.50
65752;DHT22;52486;51.098;13.770;2023-10-19T07:37:55;23.20;65.70
65752;DHT22;52486;51.098;13.770;2023-10-19T07:42:49;23.60;77.70
65752;DHT22;52486;51.098;13.770;2023-10-19T07:45:18;22.80;78.30
65752;DHT22;52486;51.098;13.770;2023-10-19T07:47:43;22.50;81.00
65752;DHT22;52486;51.098;13.770;2023-10-19T07:50:13;23.20;72.00
65752;DHT22;52486;51.098;13.770;2023-10-19T07:52:46;23.80;73.20
65752;DHT22;52486;51.098;13.770;2023-10-19T08:05:08;23.50;82.30
65752;DHT22;52486;51.098;13.770;2023-10-19T08:07:34;23.40;79.60
65752;DHT22;52486;51.098;13.770;2023-10-19T08:10:01;23.40;79.70
65752;DHT22;52486;51.098;13.770;2023-10-19T08:12:27;23.40;79.70
65752;DHT22;52486;51.098;13.770;2023-10-19T08:14:53;23.60;81.20
65752;DHT22;52486;51.098;13.770;2023-10-19T08:17:21;23.70;78.80
65752;DHT22;52486;51.098;13.770;2023-10-19T08:19:46;23.70;80.40
65752;DHT22;52486;51.098;13.770;2023-10-19T08:22:12;23.80;78.60
65752;DHT22;52486;51.098;13.770;2023-10-19T08:24:40;23.80;76.00
65752;DHT22;52486;51.098;13.770;2023-10-19T08:27:09;23.50;73.40
65752;DHT22;52486;51.098;13.770;2023-10-19T08:29:36;23.50;73.70
65752;DHT22;52486;51.098;13.770;2023-10-19T08:32:02;23.60;79.40
65752;DHT22;52486;51.098;13.770;2023-10-19T08:41:50;22.70;76.60
65752;DHT22;52486;51.098;13.770;2023-10-19T08:49:14;22.60;75.30
65752;DHT22;52486;51.098;13.770;2023-10-19T08:51:43;23.70;76.40
65752;DHT22;52486;51.098;13.770;2023-10-19T08:54:11;22.90;67.50
65752;DHT22;52486;51.098;13.770;2023-10-19T08:56:37;23.70;65.20
65752;DHT22;52486;51.098;13.770;2023-10-19T09:01:31;22.90;75.20
65752;DHT22;52486;51.098;13.770;2023-10-19T09:04:00;22.90;74.70
65752;DHT22;52486;51.098;13.770;2023-10-19T09:13:48;23.70;64.60
65752;DHT22;52486;51.098;13.770;2023-10-19T09:16:20;23.80;65.70
65752;DHT22;52486;51.098;13.770;2023-10-19T09:18:51;23.50;75.90
65752;DHT22;52486;51.098;13.770;2023-10-19T09:21:20;23.90;65.20
65752;DHT22;52486;51.098;13.770;2023-10-19T09:23:55;22.50;77.30
65752;DHT22;52486;51.098;13.770;2023-10-19T09:26:22;23.00;77.80
65752;DHT22;52486;51.098;13.770;2023-10-19T09:28:50;24.30;79.00
65752;DHT22;52486;51.098;13.770;2023-10-19T09:31:17;24.00;79.80
65752;DHT22;52486;51.098;13.770;2023-10-19T09:33:45;24.40;79.10
65752;DHT22;52486;51.098;13.770;2023-10-19T09:36:12;24.20;79.00
65752;DHT22;52486;51.098;13.770;2023-10-19T09:41:15;23.20;78.00
65752;DHT22;52486;51.098;13.770;2023-10-19T09:43:44;23.80;78.10
65752;DHT22;52486;51.098;13.770;2023-10-19T09:46:12;23.40;77.60
65752;DHT22;52486;51.098;13.770;2023-10-19T09:48:42;24.70;78.20
65752;DHT22;52486;51.098;13.770;2023-10-19T09:51:09;24.00;67.80
65752;DHT22;52486;51.098;13.770;2023-10-19T09:53:36;23.40;77.40
65752;DHT22;52486;51.098;13.770;2023-10-19T09:58:44;24.70;76.40
65752;DHT22;52486;51.098;13.770;2023-10-19T10:03:48;23.20;74.60
65752;DHT22;52486;51.098;13.770;2023-10-19T10:06:15;24.00;64.30
65752;DHT22;52486;51.098;13.770;2023-10-19T10:08:43;24.20;64.60
65752;DHT22;52486;51.098;13.770;2023-10-19T10:11:19;23.80;73.20
65752;DHT22;52486;51.098;13.770;2023-10-19T10:16:13;23.20;73.70
65752;DHT22;52486;51.098;13.770;2023-10-19T10:18:41;23.70;70.40
65752;DHT22;52486;51.098;13.770;2023-10-19T10:21:19;25.10;75.00
65752;DHT22;52486;51.098;13.770;2023-10-19T10:23:57;24.10;74.30
65752;DHT22;52486;51.098;13.770;2023-10-19T10:26:28;24.20;64.20
65752;DHT22;52486;51.098;13.770;2023-10-19T10:31:35;24.10;62.70
65752;DHT22;52486;51.098;13.770;2023-10-19T10:34:08;23.60;73.70
65752;DHT22;52486;51.098;13.770;2023-10-19T10:37:02;23.60;73.80
65752;DHT22;52486;51.098;13.770;2023-10-19T10:39:29;25.50;75.00
65752;DHT22;52486;51.098;13.770;2023-10-19T10:42:00;24.30;63.80
65752;DHT22;52486;51.098;13.770;2023-10-19T10:44:46;24.00;62.70
65752;DHT22;52486;51.098;13.770;2023-10-19T10:49:51;23.90;74.20
65752;DHT22;52486;51.098;13.770;2023-10-19T10:52:27;24.20;61.80
65752;DHT22;52486;51.098;13.770;2023-10-19T10:54:55;23.40;74.20
65752;DHT22;52486;51.098;13.770;2023-10-19T11:00:03;24.30;63.30
65752;DHT22;52486;51.098;13.770;2023-10-19T11:07:22;23.70;73.00
65752;DHT22;52486;51.098;13.770;2023-10-19T11:09:49;23.70;72.60
65752;DHT22;52486;51.098;13.770;2023-10-19T11:12:15;23.50;72.50
65752;DHT22;52486;51.098;13.770;2023-10-19T11:14:57;23.50;72.40
65752;DHT22;52486;51.098;13.770;2023-10-19T11:19:57;24.50;61.80
65752;DHT22;52486;51.098;13.770;2023-10-19T11:22:26;24.50;62.70
65752;DHT22;52486;51.098;13.770;2023-10-19T11:24:53;24.50;62.60
65752;DHT22;52486;51.098;13.770;2023-10-19T11:27:27;24.50;60.40
65752;DHT22;52486;51.098;13.770;2023-10-19T11:29:59;23.90;72.30
65752;DHT22;52486;51.098;13.770;2023-10-19T11:32:36;24.50;72.90
65752;DHT22;52486;51.098;13.770;2023-10-19T11:35:03;24.20;72.60
65752;DHT22;52486;51.098;13.770;2023-10-19T11:44:47;25.20;72.70
65752;DHT22;52486;51.098;13.770;2023-10-19T11:52:08;24.50;72.80
65752;DHT22;52486;51.098;13.770;2023-10-19T11:54:34;24.00;72.90
65752;DHT22;52486;51.098;13.770;2023-10-19T11:57:00;24.70;73.80
65752;DHT22;52486;51.098;13.770;2023-10-19T12:21:35;23.10;76.10
65752;DHT22;52486;51.098;13.770;2023-10-19T12:28:56;22.50;76.20
65752;DHT22;52486;51.098;13.770;2023-10-19T12:31:22;23.90;79.30
65752;DHT22;52486;51.098;13.770;2023-10-19T12:33:48;22.80;78.40
65752;DHT22;52486;51.098;13.770;2023-10-19T12:36:14;24.10;79.50
65752;DHT22;52486;51.098;13.770;2023-10-19T12:38:56;24.10;79.50
65752;DHT22;52486;51.098;13.770;2023-10-19T12:48:51;22.60;78.40
65752;DHT22;52486;51.098;13.770;2023-10-19T12:56:17;23.40;67.60
65752;DHT22;52486;51.098;13.770;2023-10-19T13:01:09;23.20;78.00
65752;DHT22;52486;51.098;13.770;2023-10-19T13:03:42;23.00;80.20
65752;DHT22;52486;51.098;13.770;2023-10-19T13:06:11;23.20;80.70
65752;DHT22;52486;51.098;13.770;2023-10-19T13:08:37;23.30;81.20
65752;DHT22;52486;51.098;13.770;2023-10-19T13:11:06;23.40;81.50
65752;DHT22;52486;51.098;13.770;2023-10-19T13:13:32;23.40;81.40
65752;DHT22;52486;51.098;13.770;2023-10-19T13:15:57;23.10;80.70
65752;DHT22;52486;51.098;13.770;2023-10-19T13:18:23;23.10;81.10
65752;DHT22;52486;51.098;13.770;2023-10-19T13:20:55;23.40;79.20
65752;DHT22;52486;51.098;13.770;2023-10-19T13:23:22;23.40;81.10
65752;DHT22;52486;51.098;13.770;2023-10-19T13:25:51;23.40;81.00
65752;DHT22;52486;51.098;13.770;2023-10-19T13:28:23;23.40;78.80
65752;DHT22;52486;51.098;13.770;2023-10-19T13:30:53;23.40;80.40
65752;DHT22;52486;51.098;13.770;2023-10-19T13:33:19;23.50;81.10
65752;DHT22;52486;51.098;13.770;2023-10-19T13:35:49;23.40;80.20
65752;DHT22;52486;51.098;13.770;2023-10-19T13:38:16;24.40;82.30
65752;DHT22;52486;51.098;13.770;2023-10-19T13:40:43;23.20;80.90
65752;DHT22;52486;51.098;13.770;2023-10-19T13:43:11;23.20;79.50
65752;DHT22;52486;51.098;13.770;2023-10-19T13:45:40;23.50;81.10
65752;DHT22;52486;51.098;13.770;2023-10-19T13:48:07;23.40;81.10
65752;DHT22;52486;51.098;13.770;2023-10-19T13:50:35;23.30;80.00
65752;DHT22;52486;51.098;13.770;2023-10-19T13:53:01;23.40;79.30
65752;DHT22;52486;51.098;13.770;2023-10-19T13:55:28;23.70;79.40
65752;DHT22;52486;51.098;13.770;2023-10-19T13:57:55;23.90;79.20
65752;DHT22;52486;51.098;13.770;2023-10-19T14:00:24;23.70;73.10
65752;DHT22;52486;51.098;13.770;2023-10-19T14:03:01;24.30;77.00
65752;DHT22;52486;51.098;13.770;2023-10-19T14:05:34;24.00;76.50
65752;DHT22;52486;51.098;13.770;2023-10-19T14:08:01;23.70;82.10
65752;DHT22;52486;51.098;13.770;2023-10-19T14:12:56;23.80;65.80
65752;DHT22;52486;51.098;13.770;2023-10-19T14:22:43;24.30;85.70
65752;DHT22;52486;51.098;13.770;2023-10-19T14:25:10;24.50;79.70
65752;DHT22;52486;51.098;13.770;2023-10-19T14:27:46;22.90;80.10
65752;DHT22;52486;51.098;13.770;2023-10-19T14:30:15;23.60;81.30
65752;DHT22;52486;51.098;13.770;2023-10-19T14:32:47;22.60;81.10
65752;DHT22;52486;51.098;13.770;2023-10-19T14:35:15;24.50;72.00
65752;DHT22;52486;51.098;13.770;2023-10-19T14:37:45;24.40;73.80
65752;DHT22;52486;51.098;13.770;2023-10-19T14:40:16;23.30;80.00
65752;DHT22;52486;51.098;13.770;2023-10-19T14:42:42;23.60;77.40
65752;DHT22;52486;51.098;13.770;2023-10-19T14:45:11;24.40;67.90
65752;DHT22;52486;51.098;13.770;2023-10-19T14:47:40;24.30;67.70
65752;DHT22;52486;51.098;13.770;2023-10-19T14:50:12;24.50;75.60
65752;DHT22;52486;51.098;13.770;2023-10-19T14:52:47;24.50;68.20
65752;DHT22;52486;51.098;13.770;2023-10-19T14:55:13;24.30;78.10
65752;DHT22;52486;51.098;13.770;2023-10-19T14:57:42;24.00;78.40
65752;DHT22;52486;51.098;13.770;2023-10-19T15:00:09;24.10;78.50
65752;DHT22;52486;51.098;13.770;2023-10-19T15:02:44;24.50;79.10
65752;DHT22;52486;51.098;13.770;2023-10-19T15:05:11;24.10;78.60
65752;DHT22;52486;51.098;13.770;2023-10-19T15:07:42;25.10;79.40
65752;DHT22;52486;51.098;13.770;2023-10-19T15:10:10;25.60;79.30
65752;DHT22;52486;51.098;13.770;2023-10-19T15:12:40;24.30;77.00
65752;DHT22;52486;51.098;13.770;2023-10-19T15:15:09;24.10;65.30
65752;DHT22;52486;51.098;13.770;2023-10-19T15:17:42;24.00;74.70
65752;DHT22;52486;51.098;13.770;2023-10-19T15:20:10;24.60;64.50
65752;DHT22;52486;51.098;13.770;2023-10-19T15:22:39;24.90;74.50
65752;DHT22;52486;51.098;13.770;2023-10-19T15:25:05;24.00;74.20
65752;DHT22;52486;51.098;13.770;2023-10-19T15:27:37;24.70;64.50
65752;DHT22;52486;51.098;13.770;2023-10-19T15:30:07;24.10;74.30
65752;DHT22;52486;51.098;13.770;2023-10-19T15:35:11;24.70;64.60
65752;DHT22;52486;51.098;13.770;2023-10-19T15:37:40;23.90;71.40
65752;DHT22;52486;51.098;13.770;2023-10-19T15:49:54;24.70;64.40
65752;DHT22;52486;51.098;13.770;2023-10-19T15:52:27;25.00;62.10
65752;DHT22;52486;51.098;13.770;2023-10-19T15:54:54;23.80;73.80
65752;DHT22;52486;51.098;13.770;2023-10-19T15:59:46;24.10;65.00
65752;DHT22;52486;51.098;13.770;2023-10-19T16:02:13;24.80;63.10
65752;DHT22;52486;51.098;13.770;2023-10-19T16:04:43;24.30;71.00
65752;DHT22;52486;51.098;13.770;2023-10-19T16:07:11;24.80;62.90
65752;DHT22;52486;51.098;13.770;2023-10-19T16:16:55;24.20;72.50
65752;DHT22;52486;51.098;13.770;2023-10-19T16:19:21;24.00;72.70
65752;DHT22;52486;51.098;13.770;2023-10-19T16:21:49;24.50;72.80
65752;DHT22;52486;51.098;13.770;2023-10-19T16:26:40;23.90;72.70
65752;DHT22;52486;51.098;13.770;2023-10-19T16:29:06;25.40;67.70
65752;DHT22;52486;51.098;13.770;2023-10-19T16:34:06;24.40;72.80
65752;DHT22;52486;51.098;13.770;2023-10-19T16:39:00;24.60;73.00
65752;DHT22;52486;51.098;13.770;2023-10-19T16:41:25;26.20;73.90
65752;DHT22;52486;51.098;13.770;2023-10-19T16:51:10;24.60;73.30
65752;DHT22;52486;51.098;13.770;2023-10-19T16:56:03;24.90;73.70
65752;DHT22;52486;51.098;13.770;2023-10-19T17:00:57;24.30;73.40
65752;DHT22;52486;51.098;13.770;2023-10-19T17:03:25;26.00;74.60
65752;DHT22;52486;51.098;13.770;2023-10-19T17:05:51;25.70;74.30
65752;DHT22;52486;51.098;13.770;2023-10-19T17:10:44;24.30;73.40
65752;DHT22;52486;51.098;13.770;2023-10-19T17:22:55;25.70;75.60
65752;DHT22;52486;51.098;13.770;2023-10-19T17:25:21;25.70;75.30
65752;DHT22;52486;51.098;13.770;2023-10-19T17:27:47;26.40;75.90
65752;DHT22;52486;51.098;13.770;2023-10-19T17:30:13;25.10;64.80
65752;DHT22;52486;51.098;13.770;2023-10-19T17:32:42;24.80;74.90
65752;DHT22;52486;51.098;13.770;2023-10-19T17:35:08;24.70;75.10
65752;DHT22;52486;51.098;13.770;2023-10-19T17:37:34;25.80;75.50
65752;DHT22;52486;51.098;13.770;2023-10-19T17:40:02;26.10;75.50
65752;DHT22;52486;51.098;13.770;2023-10-19T17:57:10;24.40;74.00
65752;DHT22;52486;51.098;13.770;2023-10-19T18:02:03;26.00;74.70
65752;DHT22;52486;51.098;13.770;2023-10-19T18:04:30;26.50;74.80
65752;DHT22;52486;51.098;13.770;2023-10-19T18:06:56;24.30;73.10
65752;DHT22;52486;51.098;13.770;2023-10-19T18:09:21;25.20;73.30
65752;DHT22;52486;51.098;13.770;2023-10-19T18:11:47;26.00;66.10
65752;DHT22;52486;51.098;13.770;2023-10-19T18:14:13;25.50;73.50
65752;DHT22;52486;51.098;13.770;2023-10-19T18:19:07;25.20;62.90
65752;DHT22;52486;51.098;13.770;2023-10-19T18:21:34;24.30;72.70
65752;DHT22;52486;51.098;13.770;2023-10-19T18:24:00;24.50;65.60
65752;DHT22;52486;51.098;13.770;2023-10-19T18:31:20;24.70;72.80
65752;DHT22;52486;51.098;13.770;2023-10-19T18:33:48;25.20;72.90
65752;DHT22;52486;51.098;13.770;2023-10-19T18:36:13;24.50;72.50
65752;DHT22;52486;51.098;13.770;2023-10-19T18:38:39;24.40;72.70
65752;DHT22;52486;51.098;13.770;2023-10-19T18:43:33;25.30;61.50
65752;DHT22;52486;51.098;13.770;2023-10-19T18:51:10;25.30;60.30
65752;DHT22;52486;51.098;13.770;2023-10-19T18:56:03;26.40;73.40
65752;DHT22;52486;51.098;13.770;2023-10-19T18:58:31;26.50;73.50
65752;DHT22;52486;51.098;13.770;2023-10-19T19:00:58;25.30;62.50
65752;DHT22;52486;51.098;13.770;2023-10-19T19:03:24;24.70;67.10
65752;DHT22;52486;51.098;13.770;2023-10-19T19:05:58;24.20;72.10
65752;DHT22;52486;51.098;13.770;2023-10-19T19:08:28;25.40;62.30
65752;DHT22;52486;51.098;13.770;2023-10-19T19:10:55;25.60;63.40
65752;DHT22;52486;51.098;13.770;2023-10-19T19:13:21;26.20;73.00
65752;DHT22;52486;51.098;13.770;2023-10-19T19:15:49;25.80;72.80
65752;DHT22;52486;51.098;13.770;2023-10-19T19:20:42;26.30;73.20
65752;DHT22;52486;51.098;13.770;2023-10-19T19:23:08;25.30;72.30
65752;DHT22;52486;51.098;13.770;2023-10-19T19:25:36;25.10;72.20
65752;DHT22;52486;51.098;13.770;2023-10-19T19:32:55;24.20;72.00
65752;DHT22;52486;51.098;13.770;2023-10-19T19:37:47;25.40;72.30
65752;DHT22;52486;51.098;13.770;2023-10-19T19:40:12;25.60;63.70
65752;DHT22;52486;51.098;13.770;2023-10-19T19:42:42;25.60;72.80
65752;DHT22;52486;51.098;13.770;2023-10-19T19:45:10;24.90;72.60
65752;DHT22;52486;51.098;13.770;2023-10-19T19:47:36;25.20;72.90
65752;DHT22;52486;51.098;13.770;2023-10-19T20:02:12;24.60;73.10
65752;DHT22;52486;51.098;13.770;2023-10-19T20:09:31;24.60;73.20
65752;DHT22;52486;51.098;13.770;2023-10-19T20:16:49;24.40;73.10
65752;DHT22;52486;51.098;13.770;2023-10-19T20:19:14;25.20;73.40
65752;DHT22;52486;51.098;13.770;2023-10-19T20:29:00;24.80;72.40
65752;DHT22;52486;51.098;13.770;2023-10-19T20:36:20;25.20;72.30
65752;DHT22;52486;51.098;13.770;2023-10-19T20:38:45;25.00;72.30
65752;DHT22;52486;51.098;13.770;2023-10-19T20:46:08;25.30;61.30
65752;DHT22;52486;51.098;13.770;2023-10-19T20:48:34;24.60;63.30
65752;DHT22;52486;51.098;13.770;2023-10-19T20:51:00;26.30;72.90
65752;DHT22;52486;51.098;13.770;2023-10-19T20:55:59;26.70;73.40
65752;DHT22;52486;51.098;13.770;2023-10-19T21:05:43;25.30;71.80
65752;DHT22;52486;51.098;13.770;2023-10-19T21:17:55;25.00;70.90
65752;DHT22;52486;51.098;13.770;2023-10-19T21:20:21;24.60;70.70
65752;DHT22;52486;51.098;13.770;2023-10-19T21:22:48;25.40;60.90
65752;DHT22;52486;51.098;13.770;2023-10-19T21:25:16;25.40;60.90
65752;DHT22;52486;51.098;13.770;2023-10-19T21:27:42;24.90;70.80
65752;DHT22;52486;51.098;13.770;2023-10-19T21:30:10;25.20;70.90
65752;DHT22;52486;51.098;13.770;2023-10-19T21:32:40;24.70;60.60
65752;DHT22;52486;51.098;13.770;2023-10-19T21:44:52;24.70;70.40
65752;DHT22;52486;51.098;13.770;2023-10-19T21:49:48;25.60;58.40
65752;DHT22;52486;51.098;13.770;2023-10-19T21:52:14;25.70;61.70
65752;DHT22;52486;51.098;13.770;2023-10-19T21:54:42;24.40;70.30
65752;DHT22;52486;51.098;13.770;2023-10-19T22:04:26;24.70;68.20
65752;DHT22;52486;51.098;13.770;2023-10-19T22:14:11;25.00;70.30
65752;DHT22;52486;51.098;13.770;2023-10-19T22:31:16;25.20;69.90
65752;DHT22;52486;51.098;13.770;2023-10-19T22:33:42;25.00;64.80
65752;DHT22;52486;51.098;13.770;2023-10-19T22:36:07;24.60;70.30
65752;DHT22;52486;51.098;13.770;2023-10-19T22:38:34;24.90;70.30
65752;DHT22;52486;51.098;13.770;2023-10-19T22:41:00;24.70;65.70
65752;DHT22;52486;51.098;13.770;2023-10-19T22:43:26;25.10;70.50
65752;DHT22;52486;51.098;13.770;2023-10-19T22:45:51;25.50;70.90
65752;DHT22;52486;51.098;13.770;2023-10-19T22:48:17;25.00;62.70
65752;DHT22;52486;51.098;13.770;2023-10-19T22:50:42;24.80;69.20
65752;DHT22;52486;51.098;13.770;2023-10-19T23:10:14;24.50;70.60
65752;DHT22;52486;51.098;13.770;2023-10-19T23:25:18;24.60;71.00
65752;DHT22;52486;51.098;13.770;2023-10-19T23:27:46;25.70;64.70
65752;DHT22;52486;51.098;13.770;2023-10-19T23:30:11;24.40;71.00
65752;DHT22;52486;51.098;13.770;2023-10-19T23:40:00;25.30;71.60
